sensor_id;sensor_type;location;lat;lon;timestamp;P1;durP1;ratioP1;P2;durP2;ratioP2
46439;SDS011;32138;50.966;6.968;2022-08-21T00:01:13;14.80;;;12.93;;
46439;SDS011;32138;50.966;6.968;2022-08-21T00:05:23;15.95;;;9.57;;
46439;SDS011;32138;50.966;6.968;2022-08-21T00:07:25;14.82;;;9.27;;
46439;SDS011;32138;50.966;6.968;2022-08-21T00:09:26;13.85;;;8.52;;
46439;SDS011;32138;50.966;6.968;2022-08-21T00:11:26;16.85;;;8.25;;
46439;SDS011;32138;50.966;6.968;2022-08-21T00:13:27;14.38;;;8.27;;
46439;SDS011;32138;50.966;6.968;2022-08-21T00:15:29;16.00;;;8.23;;
46439;SDS011;32138;50.966;6.968;2022-08-21T00:17:31;13.10;;;8.57;;
46439;SDS011;32138;50.966;6.968;2022-08-21T00:19:32;14.02;;;8.02;;
46439;SDS011;32138;50.966;6.968;2022-08-21T00:21:34;14.77;;;8.85;;
46439;SDS011;32138;50.966;6.968;2022-08-21T00:23:35;16.08;;;8.80;;
46439;SDS011;32138;50.966;6.968;2022-08-21T00:25:36;11.95;;;8.52;;
46439;SDS011;32138;50.966;6.968;2022-08-21T00:27:38;13.88;;;8.45;;
46439;SDS011;32138;50.966;6.968;2022-08-21T00:29:39;14.35;;;8.35;;
46439;SDS011;32138;50.966;6.968;2022-08-21T00:31:40;11.25;;;8.15;;
46439;SDS011;32138;50.966;6.968;2022-08-21T00:33:42;15.98;;;8.43;;
46439;SDS011;32138;50.966;6.968;2022-08-21T00:35:44;14.77;;;8.63;;
46439;SDS011;32138;50.966;6.968;2022-08-21T00:37:45;12.75;;;8.30;;
46439;SDS011;32138;50.966;6.968;2022-08-21T00:39:46;11.20;;;7.63;;
46439;SDS011;32138;50.966;6.968;2022-08-21T00:41:47;14.88;;;8.95;;
46439;SDS011;32138;50.966;6.968;2022-08-21T00:43:47;31.70;;;28.40;;
46439;SDS011;32138;50.966;6.968;2022-08-21T00:45:49;14.70;;;11.32;;
46439;SDS011;32138;50.966;6.968;2022-08-21T00:47:51;13.70;;;9.18;;
46439;SDS011;32138;50.966;6.968;2022-08-21T00:49:54;13.57;;;8.00;;
46439;SDS011;32138;50.966;6.968;2022-08-21T00:51:57;15.75;;;8.43;;
46439;SDS011;32138;50.966;6.968;2022-08-21T00:54:01;12.65;;;8.65;;
46439;SDS011;32138;50.966;6.968;2022-08-21T00:56:04;12.05;;;8.55;;
46439;SDS011;32138;50.966;6.968;2022-08-21T00:58:08;13.77;;;8.52;;
46439;SDS011;32138;50.966;6.968;2022-08-21T01:00:14;10.98;;;7.97;;
46439;SDS011;32138;50.966;6.968;2022-08-21T01:02:19;13.98;;;9.68;;
46439;SDS011;32138;50.966;6.968;2022-08-21T01:04:21;18.17;;;9.05;;
46439;SDS011;32138;50.966;6.968;2022-08-21T01:06:23;16.25;;;9.88;;
46439;SDS011;32138;50.966;6.968;2022-08-21T01:08:24;13.55;;;10.20;;
46439;SDS011;32138;50.966;6.968;2022-08-21T01:10:25;13.55;;;9.50;;
46439;SDS011;32138;50.966;6.968;2022-08-21T01:12:26;18.65;;;10.60;;
46439;SDS011;32138;50.966;6.968;2022-08-21T01:14:27;13.15;;;9.90;;
46439;SDS011;32138;50.966;6.968;2022-08-21T01:16:30;11.20;;;9.43;;
46439;SDS011;32138;50.966;6.968;2022-08-21T01:18:32;16.60;;;11.32;;
46439;SDS011;32138;50.966;6.968;2022-08-21T01:20:34;14.80;;;11.18;;
46439;SDS011;32138;50.966;6.968;2022-08-21T01:22:35;14.98;;;11.32;;
46439;SDS011;32138;50.966;6.968;2022-08-21T01:24:37;16.35;;;11.32;;
46439;SDS011;32138;50.966;6.968;2022-08-21T01:26:38;15.95;;;11.02;;
46439;SDS011;32138;50.966;6.968;2022-08-21T01:31:36;17.45;;;11.82;;
46439;SDS011;32138;50.966;6.968;2022-08-21T01:33:38;15.10;;;10.88;;
46439;SDS011;32138;50.966;6.968;2022-08-21T01:35:39;20.90;;;11.05;;
46439;SDS011;32138;50.966;6.968;2022-08-21T01:37:41;15.38;;;10.05;;
46439;SDS011;32138;50.966;6.968;2022-08-21T01:39:42;17.60;;;10.65;;
46439;SDS011;32138;50.966;6.968;2022-08-21T01:41:44;14.80;;;10.27;;
46439;SDS011;32138;50.966;6.968;2022-08-21T01:43:45;13.00;;;10.75;;
46439;SDS011;32138;50.966;6.968;2022-08-21T01:45:46;17.90;;;11.75;;
46439;SDS011;32138;50.966;6.968;2022-08-21T01:47:46;14.35;;;11.23;;
46439;SDS011;32138;50.966;6.968;2022-08-21T01:49:47;14.63;;;11.85;;
46439;SDS011;32138;50.966;6.968;2022-08-21T01:51:48;21.13;;;12.20;;
46439;SDS011;32138;50.966;6.968;2022-08-21T01:53:49;15.95;;;11.10;;
46439;SDS011;32138;50.966;6.968;2022-08-21T01:55:50;15.23;;;10.65;;
46439;SDS011;32138;50.966;6.968;2022-08-21T01:57:50;17.15;;;12.18;;
46439;SDS011;32138;50.966;6.968;2022-08-21T01:59:51;14.55;;;11.02;;
46439;SDS011;32138;50.966;6.968;2022-08-21T02:01:53;14.88;;;11.25;;
46439;SDS011;32138;50.966;6.968;2022-08-21T02:03:57;17.17;;;11.43;;
46439;SDS011;32138;50.966;6.968;2022-08-21T02:05:59;17.10;;;11.70;;
46439;SDS011;32138;50.966;6.968;2022-08-21T02:08:00;17.02;;;12.68;;
46439;SDS011;32138;50.966;6.968;2022-08-21T02:10:01;19.05;;;12.98;;
46439;SDS011;32138;50.966;6.968;2022-08-21T02:12:02;16.52;;;10.93;;
46439;SDS011;32138;50.966;6.968;2022-08-21T02:14:03;14.93;;;11.80;;
46439;SDS011;32138;50.966;6.968;2022-08-21T02:16:04;16.85;;;11.43;;
46439;SDS011;32138;50.966;6.968;2022-08-21T02:18:06;12.93;;;10.05;;
46439;SDS011;32138;50.966;6.968;2022-08-21T02:20:07;15.45;;;10.90;;
46439;SDS011;32138;50.966;6.968;2022-08-21T02:22:10;15.65;;;9.98;;
46439;SDS011;32138;50.966;6.968;2022-08-21T02:24:12;16.27;;;11.65;;
46439;SDS011;32138;50.966;6.968;2022-08-21T02:26:12;15.48;;;10.85;;
46439;SDS011;32138;50.966;6.968;2022-08-21T02:28:14;15.75;;;10.25;;
46439;SDS011;32138;50.966;6.968;2022-08-21T02:30:18;21.80;;;12.25;;
46439;SDS011;32138;50.966;6.968;2022-08-21T02:32:23;14.52;;;11.10;;
46439;SDS011;32138;50.966;6.968;2022-08-21T02:34:24;19.25;;;11.60;;
46439;SDS011;32138;50.966;6.968;2022-08-21T02:36:25;14.23;;;11.18;;
46439;SDS011;32138;50.966;6.968;2022-08-21T02:38:27;20.05;;;10.82;;
46439;SDS011;32138;50.966;6.968;2022-08-21T02:40:33;15.98;;;10.85;;
46439;SDS011;32138;50.966;6.968;2022-08-21T02:42:37;14.98;;;10.77;;
46439;SDS011;32138;50.966;6.968;2022-08-21T02:44:39;14.23;;;11.32;;
46439;SDS011;32138;50.966;6.968;2022-08-21T02:46:40;16.98;;;11.25;;
46439;SDS011;32138;50.966;6.968;2022-08-21T02:48:41;14.65;;;10.38;;
46439;SDS011;32138;50.966;6.968;2022-08-21T02:50:43;16.73;;;9.18;;
46439;SDS011;32138;50.966;6.968;2022-08-21T02:52:48;15.63;;;10.05;;
46439;SDS011;32138;50.966;6.968;2022-08-21T02:54:49;17.42;;;11.57;;
46439;SDS011;32138;50.966;6.968;2022-08-21T02:56:50;15.75;;;10.93;;
46439;SDS011;32138;50.966;6.968;2022-08-21T02:58:51;15.75;;;9.90;;
46439;SDS011;32138;50.966;6.968;2022-08-21T03:00:52;14.23;;;9.10;;
46439;SDS011;32138;50.966;6.968;2022-08-21T03:02:54;21.13;;;10.65;;
46439;SDS011;32138;50.966;6.968;2022-08-21T03:04:56;10.98;;;9.05;;
46439;SDS011;32138;50.966;6.968;2022-08-21T03:06:56;13.13;;;8.77;;
46439;SDS011;32138;50.966;6.968;2022-08-21T03:08:57;12.27;;;9.52;;
46439;SDS011;32138;50.966;6.968;2022-08-21T03:10:58;15.23;;;10.27;;
46439;SDS011;32138;50.966;6.968;2022-08-21T03:13:00;13.75;;;9.85;;
46439;SDS011;32138;50.966;6.968;2022-08-21T03:15:07;14.73;;;10.70;;
46439;SDS011;32138;50.966;6.968;2022-08-21T03:17:14;15.48;;;9.55;;
46439;SDS011;32138;50.966;6.968;2022-08-21T03:19:15;12.93;;;9.18;;
46439;SDS011;32138;50.966;6.968;2022-08-21T03:21:15;16.25;;;10.73;;
46439;SDS011;32138;50.966;6.968;2022-08-21T03:23:18;17.33;;;10.05;;
46439;SDS011;32138;50.966;6.968;2022-08-21T03:25:20;19.45;;;10.30;;
46439;SDS011;32138;50.966;6.968;2022-08-21T03:27:23;20.98;;;10.05;;
46439;SDS011;32138;50.966;6.968;2022-08-21T03:29:24;15.20;;;10.85;;
46439;SDS011;32138;50.966;6.968;2022-08-21T03:31:25;16.52;;;10.48;;
46439;SDS011;32138;50.966;6.968;2022-08-21T03:33:31;14.85;;;9.85;;
46439;SDS011;32138;50.966;6.968;2022-08-21T03:35:32;16.83;;;9.95;;
46439;SDS011;32138;50.966;6.968;2022-08-21T03:37:33;11.10;;;9.30;;
46439;SDS011;32138;50.966;6.968;2022-08-21T03:39:34;17.52;;;10.93;;
46439;SDS011;32138;50.966;6.968;2022-08-21T03:41:35;14.65;;;9.48;;
46439;SDS011;32138;50.966;6.968;2022-08-21T03:43:36;14.40;;;9.23;;
46439;SDS011;32138;50.966;6.968;2022-08-21T03:45:38;13.23;;;9.25;;
46439;SDS011;32138;50.966;6.968;2022-08-21T03:47:49;14.07;;;9.65;;
46439;SDS011;32138;50.966;6.968;2022-08-21T03:49:51;16.48;;;11.60;;
46439;SDS011;32138;50.966;6.968;2022-08-21T03:51:52;12.48;;;9.07;;
46439;SDS011;32138;50.966;6.968;2022-08-21T03:53:54;13.82;;;10.23;;
46439;SDS011;32138;50.966;6.968;2022-08-21T03:55:55;13.38;;;9.85;;
46439;SDS011;32138;50.966;6.968;2022-08-21T03:57:56;13.20;;;9.35;;
46439;SDS011;32138;50.966;6.968;2022-08-21T03:59:57;16.75;;;10.55;;
46439;SDS011;32138;50.966;6.968;2022-08-21T04:01:59;15.02;;;9.38;;
46439;SDS011;32138;50.966;6.968;2022-08-21T04:04:03;16.58;;;10.40;;
46439;SDS011;32138;50.966;6.968;2022-08-21T04:06:05;11.55;;;8.10;;
46439;SDS011;32138;50.966;6.968;2022-08-21T04:08:06;11.95;;;9.70;;
46439;SDS011;32138;50.966;6.968;2022-08-21T04:10:07;14.35;;;8.18;;
46439;SDS011;32138;50.966;6.968;2022-08-21T04:12:09;15.07;;;8.93;;
46439;SDS011;32138;50.966;6.968;2022-08-21T04:14:10;13.57;;;7.95;;
46439;SDS011;32138;50.966;6.968;2022-08-21T04:16:11;12.82;;;7.65;;
46439;SDS011;32138;50.966;6.968;2022-08-21T04:18:13;12.70;;;7.75;;
46439;SDS011;32138;50.966;6.968;2022-08-21T04:20:14;13.90;;;8.35;;
46439;SDS011;32138;50.966;6.968;2022-08-21T04:22:17;15.38;;;7.93;;
46439;SDS011;32138;50.966;6.968;2022-08-21T04:24:17;15.20;;;8.32;;
46439;SDS011;32138;50.966;6.968;2022-08-21T04:26:19;14.77;;;8.93;;
46439;SDS011;32138;50.966;6.968;2022-08-21T04:28:20;16.80;;;9.10;;
46439;SDS011;32138;50.966;6.968;2022-08-21T04:30:22;14.13;;;8.10;;
46439;SDS011;32138;50.966;6.968;2022-08-21T04:32:23;13.25;;;8.07;;
46439;SDS011;32138;50.966;6.968;2022-08-21T04:34:25;14.88;;;8.55;;
46439;SDS011;32138;50.966;6.968;2022-08-21T04:36:26;14.40;;;9.45;;
46439;SDS011;32138;50.966;6.968;2022-08-21T04:38:27;15.63;;;8.50;;
46439;SDS011;32138;50.966;6.968;2022-08-21T04:40:28;10.95;;;8.27;;
46439;SDS011;32138;50.966;6.968;2022-08-21T04:42:29;11.15;;;7.97;;
46439;SDS011;32138;50.966;6.968;2022-08-21T04:44:30;14.85;;;9.35;;
46439;SDS011;32138;50.966;6.968;2022-08-21T04:46:31;14.32;;;8.85;;
46439;SDS011;32138;50.966;6.968;2022-08-21T04:48:32;16.58;;;9.23;;
46439;SDS011;32138;50.966;6.968;2022-08-21T04:53:14;16.85;;;7.97;;
46439;SDS011;32138;50.966;6.968;2022-08-21T04:55:28;12.98;;;9.57;;
46439;SDS011;32138;50.966;6.968;2022-08-21T04:57:29;15.90;;;9.38;;
46439;SDS011;32138;50.966;6.968;2022-08-21T04:59:31;13.00;;;7.93;;
46439;SDS011;32138;50.966;6.968;2022-08-21T05:01:38;10.57;;;8.25;;
46439;SDS011;32138;50.966;6.968;2022-08-21T05:03:40;11.50;;;8.40;;
46439;SDS011;32138;50.966;6.968;2022-08-21T05:05:42;13.43;;;9.55;;
46439;SDS011;32138;50.966;6.968;2022-08-21T05:07:43;14.68;;;8.80;;
46439;SDS011;32138;50.966;6.968;2022-08-21T05:09:45;13.82;;;7.68;;
46439;SDS011;32138;50.966;6.968;2022-08-21T05:11:46;10.73;;;8.35;;
46439;SDS011;32138;50.966;6.968;2022-08-21T05:13:49;10.73;;;8.40;;
46439;SDS011;32138;50.966;6.968;2022-08-21T05:15:50;11.40;;;8.23;;
46439;SDS011;32138;50.966;6.968;2022-08-21T05:17:50;12.25;;;8.02;;
46439;SDS011;32138;50.966;6.968;2022-08-21T05:19:51;13.15;;;8.30;;
46439;SDS011;32138;50.966;6.968;2022-08-21T05:21:52;13.50;;;9.15;;
46439;SDS011;32138;50.966;6.968;2022-08-21T05:23:54;12.32;;;8.63;;
46439;SDS011;32138;50.966;6.968;2022-08-21T05:25:54;12.00;;;8.15;;
46439;SDS011;32138;50.966;6.968;2022-08-21T05:27:55;10.90;;;8.07;;
46439;SDS011;32138;50.966;6.968;2022-08-21T05:29:56;14.38;;;7.70;;
46439;SDS011;32138;50.966;6.968;2022-08-21T05:31:57;15.30;;;8.20;;
46439;SDS011;32138;50.966;6.968;2022-08-21T05:33:58;16.25;;;9.20;;
46439;SDS011;32138;50.966;6.968;2022-08-21T05:35:59;11.05;;;7.50;;
46439;SDS011;32138;50.966;6.968;2022-08-21T05:38:00;12.80;;;7.22;;
46439;SDS011;32138;50.966;6.968;2022-08-21T05:40:02;14.07;;;8.20;;
46439;SDS011;32138;50.966;6.968;2022-08-21T05:42:04;13.27;;;8.23;;
46439;SDS011;32138;50.966;6.968;2022-08-21T05:44:06;16.42;;;7.65;;
46439;SDS011;32138;50.966;6.968;2022-08-21T05:46:06;17.45;;;8.93;;
46439;SDS011;32138;50.966;6.968;2022-08-21T05:48:08;13.05;;;8.18;;
46439;SDS011;32138;50.966;6.968;2022-08-21T05:50:16;12.57;;;9.05;;
46439;SDS011;32138;50.966;6.968;2022-08-21T05:52:20;13.00;;;8.25;;
46439;SDS011;32138;50.966;6.968;2022-08-21T05:54:21;14.20;;;8.88;;
46439;SDS011;32138;50.966;6.968;2022-08-21T05:56:22;15.70;;;9.55;;
46439;SDS011;32138;50.966;6.968;2022-08-21T05:58:22;17.80;;;9.75;;
46439;SDS011;32138;50.966;6.968;2022-08-21T06:00:23;15.20;;;9.20;;
46439;SDS011;32138;50.966;6.968;2022-08-21T06:02:24;11.40;;;8.75;;
46439;SDS011;32138;50.966;6.968;2022-08-21T06:04:25;16.40;;;10.50;;
46439;SDS011;32138;50.966;6.968;2022-08-21T06:06:26;19.02;;;9.23;;
46439;SDS011;32138;50.966;6.968;2022-08-21T06:08:27;16.42;;;8.90;;
46439;SDS011;32138;50.966;6.968;2022-08-21T06:10:28;12.05;;;8.20;;
46439;SDS011;32138;50.966;6.968;2022-08-21T06:12:29;13.60;;;9.93;;
46439;SDS011;32138;50.966;6.968;2022-08-21T06:14:29;14.48;;;8.48;;
46439;SDS011;32138;50.966;6.968;2022-08-21T06:16:30;13.45;;;8.70;;
46439;SDS011;32138;50.966;6.968;2022-08-21T06:18:31;15.30;;;9.27;;
46439;SDS011;32138;50.966;6.968;2022-08-21T06:20:33;14.52;;;8.80;;
46439;SDS011;32138;50.966;6.968;2022-08-21T06:22:34;12.27;;;7.72;;
46439;SDS011;32138;50.966;6.968;2022-08-21T06:24:35;13.73;;;8.43;;
46439;SDS011;32138;50.966;6.968;2022-08-21T06:26:36;13.43;;;7.50;;
46439;SDS011;32138;50.966;6.968;2022-08-21T06:28:37;11.18;;;8.05;;
46439;SDS011;32138;50.966;6.968;2022-08-21T06:30:39;13.77;;;8.60;;
46439;SDS011;32138;50.966;6.968;2022-08-21T06:32:40;18.10;;;8.60;;
46439;SDS011;32138;50.966;6.968;2022-08-21T06:34:40;16.13;;;8.65;;
46439;SDS011;32138;50.966;6.968;2022-08-21T06:36:41;12.50;;;7.85;;
46439;SDS011;32138;50.966;6.968;2022-08-21T06:38:42;12.45;;;8.13;;
46439;SDS011;32138;50.966;6.968;2022-08-21T06:40:43;17.15;;;8.63;;
46439;SDS011;32138;50.966;6.968;2022-08-21T06:42:44;12.75;;;8.20;;
46439;SDS011;32138;50.966;6.968;2022-08-21T06:44:45;13.02;;;8.63;;
46439;SDS011;32138;50.966;6.968;2022-08-21T06:46:47;11.88;;;8.15;;
46439;SDS011;32138;50.966;6.968;2022-08-21T06:48:48;13.05;;;8.13;;
46439;SDS011;32138;50.966;6.968;2022-08-21T06:50:49;14.57;;;8.40;;
46439;SDS011;32138;50.966;6.968;2022-08-21T06:52:57;10.25;;;7.97;;
46439;SDS011;32138;50.966;6.968;2022-08-21T06:55:08;11.23;;;7.20;;
46439;SDS011;32138;50.966;6.968;2022-08-21T06:57:10;13.13;;;7.50;;
46439;SDS011;32138;50.966;6.968;2022-08-21T06:59:10;13.43;;;7.88;;
46439;SDS011;32138;50.966;6.968;2022-08-21T07:01:11;13.70;;;8.38;;
46439;SDS011;32138;50.966;6.968;2022-08-21T07:03:19;14.10;;;7.68;;
46439;SDS011;32138;50.966;6.968;2022-08-21T07:05:26;13.30;;;7.53;;
46439;SDS011;32138;50.966;6.968;2022-08-21T07:07:29;9.25;;;5.60;;
46439;SDS011;32138;50.966;6.968;2022-08-21T07:09:29;12.55;;;5.65;;
46439;SDS011;32138;50.966;6.968;2022-08-21T07:11:30;8.57;;;5.45;;
46439;SDS011;32138;50.966;6.968;2022-08-21T07:13:31;7.90;;;4.78;;
46439;SDS011;32138;50.966;6.968;2022-08-21T07:15:32;8.77;;;4.53;;
46439;SDS011;32138;50.966;6.968;2022-08-21T07:17:33;9.90;;;4.47;;
46439;SDS011;32138;50.966;6.968;2022-08-21T07:19:34;10.40;;;4.05;;
46439;SDS011;32138;50.966;6.968;2022-08-21T07:21:34;10.82;;;4.05;;
46439;SDS011;32138;50.966;6.968;2022-08-21T07:23:42;9.50;;;4.90;;
46439;SDS011;32138;50.966;6.968;2022-08-21T07:25:47;8.05;;;3.70;;
46439;SDS011;32138;50.966;6.968;2022-08-21T07:27:48;12.40;;;4.25;;
46439;SDS011;32138;50.966;6.968;2022-08-21T07:29:48;7.68;;;3.50;;
46439;SDS011;32138;50.966;6.968;2022-08-21T07:31:49;6.78;;;3.00;;
46439;SDS011;32138;50.966;6.968;2022-08-21T07:33:50;8.15;;;3.15;;
46439;SDS011;32138;50.966;6.968;2022-08-21T07:35:51;10.18;;;3.00;;
46439;SDS011;32138;50.966;6.968;2022-08-21T07:37:52;10.07;;;3.72;;
46439;SDS011;32138;50.966;6.968;2022-08-21T07:39:53;9.68;;;3.70;;
46439;SDS011;32138;50.966;6.968;2022-08-21T07:41:54;6.95;;;2.40;;
46439;SDS011;32138;50.966;6.968;2022-08-21T07:43:58;8.88;;;2.65;;
46439;SDS011;32138;50.966;6.968;2022-08-21T07:46:00;6.82;;;2.25;;
46439;SDS011;32138;50.966;6.968;2022-08-21T07:48:00;6.38;;;2.65;;
46439;SDS011;32138;50.966;6.968;2022-08-21T07:50:01;12.65;;;3.25;;
46439;SDS011;32138;50.966;6.968;2022-08-21T07:52:03;6.93;;;3.25;;
46439;SDS011;32138;50.966;6.968;2022-08-21T07:54:04;8.52;;;3.15;;
46439;SDS011;32138;50.966;6.968;2022-08-21T07:56:05;9.20;;;2.65;;
46439;SDS011;32138;50.966;6.968;2022-08-21T07:58:10;12.10;;;3.25;;
46439;SDS011;32138;50.966;6.968;2022-08-21T08:00:12;8.60;;;3.17;;
46439;SDS011;32138;50.966;6.968;2022-08-21T08:02:21;8.85;;;2.50;;
46439;SDS011;32138;50.966;6.968;2022-08-21T08:04:26;8.60;;;3.27;;
46439;SDS011;32138;50.966;6.968;2022-08-21T08:06:27;10.05;;;2.75;;
46439;SDS011;32138;50.966;6.968;2022-08-21T08:08:28;9.20;;;2.80;;
46439;SDS011;32138;50.966;6.968;2022-08-21T08:10:28;7.88;;;2.50;;
46439;SDS011;32138;50.966;6.968;2022-08-21T08:12:29;8.25;;;2.75;;
46439;SDS011;32138;50.966;6.968;2022-08-21T08:14:30;11.68;;;3.08;;
46439;SDS011;32138;50.966;6.968;2022-08-21T08:16:31;6.15;;;2.78;;
46439;SDS011;32138;50.966;6.968;2022-08-21T08:18:32;10.57;;;3.30;;
46439;SDS011;32138;50.966;6.968;2022-08-21T08:20:32;7.43;;;2.30;;
46439;SDS011;32138;50.966;6.968;2022-08-21T08:22:33;11.02;;;3.00;;
46439;SDS011;32138;50.966;6.968;2022-08-21T08:24:38;12.70;;;3.03;;
46439;SDS011;32138;50.966;6.968;2022-08-21T08:26:39;9.45;;;2.80;;
46439;SDS011;32138;50.966;6.968;2022-08-21T08:28:40;9.43;;;2.88;;
46439;SDS011;32138;50.966;6.968;2022-08-21T08:30:41;8.70;;;3.20;;
46439;SDS011;32138;50.966;6.968;2022-08-21T08:32:42;5.22;;;2.42;;
46439;SDS011;32138;50.966;6.968;2022-08-21T08:34:43;7.85;;;2.28;;
46439;SDS011;32138;50.966;6.968;2022-08-21T08:36:44;8.10;;;2.63;;
46439;SDS011;32138;50.966;6.968;2022-08-21T08:38:45;9.15;;;2.60;;
46439;SDS011;32138;50.966;6.968;2022-08-21T08:40:50;9.18;;;2.47;;
46439;SDS011;32138;50.966;6.968;2022-08-21T08:42:59;7.90;;;2.55;;
46439;SDS011;32138;50.966;6.968;2022-08-21T08:47:16;7.13;;;2.70;;
46439;SDS011;32138;50.966;6.968;2022-08-21T08:49:19;7.97;;;2.88;;
46439;SDS011;32138;50.966;6.968;2022-08-21T08:51:46;11.35;;;2.60;;
46439;SDS011;32138;50.966;6.968;2022-08-21T08:53:56;8.70;;;2.45;;
46439;SDS011;32138;50.966;6.968;2022-08-21T08:56:02;9.15;;;2.33;;
46439;SDS011;32138;50.966;6.968;2022-08-21T08:58:06;9.30;;;2.60;;
46439;SDS011;32138;50.966;6.968;2022-08-21T09:00:08;6.05;;;2.40;;
46439;SDS011;32138;50.966;6.968;2022-08-21T09:02:12;7.97;;;3.03;;
46439;SDS011;32138;50.966;6.968;2022-08-21T09:04:17;10.70;;;2.83;;
46439;SDS011;32138;50.966;6.968;2022-08-21T09:11:33;8.02;;;2.25;;
46439;SDS011;32138;50.966;6.968;2022-08-21T09:16:41;22.55;;;15.32;;
46439;SDS011;32138;50.966;6.968;2022-08-21T09:23:40;8.50;;;2.80;;
46439;SDS011;32138;50.966;6.968;2022-08-21T09:26:16;10.82;;;3.90;;
46439;SDS011;32138;50.966;6.968;2022-08-21T09:28:19;10.52;;;3.13;;
46439;SDS011;32138;50.966;6.968;2022-08-21T09:30:23;7.32;;;4.10;;
46439;SDS011;32138;50.966;6.968;2022-08-21T09:32:31;8.00;;;3.00;;
46439;SDS011;32138;50.966;6.968;2022-08-21T09:34:35;6.63;;;2.08;;
46439;SDS011;32138;50.966;6.968;2022-08-21T09:38:51;10.15;;;2.95;;
46439;SDS011;32138;50.966;6.968;2022-08-21T09:40:56;9.60;;;3.25;;
46439;SDS011;32138;50.966;6.968;2022-08-21T09:45:20;8.65;;;2.58;;
46439;SDS011;32138;50.966;6.968;2022-08-21T09:47:21;18.65;;;2.95;;
46439;SDS011;32138;50.966;6.968;2022-08-21T09:49:28;9.85;;;2.80;;
46439;SDS011;32138;50.966;6.968;2022-08-21T09:51:36;10.90;;;2.15;;
46439;SDS011;32138;50.966;6.968;2022-08-21T09:53:39;14.27;;;2.47;;
46439;SDS011;32138;50.966;6.968;2022-08-21T09:55:50;8.02;;;2.92;;
46439;SDS011;32138;50.966;6.968;2022-08-21T09:58:29;11.27;;;3.05;;
46439;SDS011;32138;50.966;6.968;2022-08-21T10:00:34;8.70;;;2.92;;
46439;SDS011;32138;50.966;6.968;2022-08-21T10:02:35;6.13;;;2.10;;
46439;SDS011;32138;50.966;6.968;2022-08-21T10:04:36;8.40;;;2.47;;
46439;SDS011;32138;50.966;6.968;2022-08-21T10:06:37;11.85;;;3.00;;
46439;SDS011;32138;50.966;6.968;2022-08-21T10:08:39;6.75;;;2.42;;
46439;SDS011;32138;50.966;6.968;2022-08-21T10:10:41;11.18;;;2.78;;
46439;SDS011;32138;50.966;6.968;2022-08-21T10:12:45;10.43;;;2.28;;
46439;SDS011;32138;50.966;6.968;2022-08-21T10:15:14;7.90;;;2.58;;
46439;SDS011;32138;50.966;6.968;2022-08-21T10:17:30;11.40;;;2.67;;
46439;SDS011;32138;50.966;6.968;2022-08-21T10:20:37;13.35;;;2.92;;
46439;SDS011;32138;50.966;6.968;2022-08-21T10:25:18;6.57;;;2.35;;
46439;SDS011;32138;50.966;6.968;2022-08-21T10:30:12;9.70;;;3.92;;
46439;SDS011;32138;50.966;6.968;2022-08-21T10:35:22;8.38;;;2.75;;
46439;SDS011;32138;50.966;6.968;2022-08-21T10:37:41;8.85;;;3.10;;
46439;SDS011;32138;50.966;6.968;2022-08-21T10:42:32;5.72;;;1.98;;
46439;SDS011;32138;50.966;6.968;2022-08-21T10:44:57;7.30;;;2.58;;
46439;SDS011;32138;50.966;6.968;2022-08-21T10:47:28;10.57;;;2.78;;
46439;SDS011;32138;50.966;6.968;2022-08-21T10:54:57;8.30;;;2.00;;
46439;SDS011;32138;50.966;6.968;2022-08-21T10:57:12;10.93;;;2.80;;
46439;SDS011;32138;50.966;6.968;2022-08-21T10:59:42;4.97;;;1.90;;
46439;SDS011;32138;50.966;6.968;2022-08-21T11:01:53;11.20;;;2.88;;
46439;SDS011;32138;50.966;6.968;2022-08-21T11:04:20;4.82;;;1.80;;
46439;SDS011;32138;50.966;6.968;2022-08-21T11:06:37;9.55;;;2.40;;
46439;SDS011;32138;50.966;6.968;2022-08-21T11:08:45;8.00;;;2.38;;
46439;SDS011;32138;50.966;6.968;2022-08-21T11:10:59;8.95;;;2.45;;
46439;SDS011;32138;50.966;6.968;2022-08-21T11:13:16;9.95;;;2.72;;
46439;SDS011;32138;50.966;6.968;2022-08-21T11:15:31;6.30;;;2.08;;
46439;SDS011;32138;50.966;6.968;2022-08-21T11:17:52;6.47;;;2.20;;
46439;SDS011;32138;50.966;6.968;2022-08-21T11:20:05;6.15;;;2.15;;
46439;SDS011;32138;50.966;6.968;2022-08-21T11:22:28;5.60;;;2.63;;
46439;SDS011;32138;50.966;6.968;2022-08-21T11:24:49;5.88;;;2.35;;
46439;SDS011;32138;50.966;6.968;2022-08-21T11:27:58;10.00;;;3.03;;
46439;SDS011;32138;50.966;6.968;2022-08-21T11:30:03;10.52;;;3.13;;
46439;SDS011;32138;50.966;6.968;2022-08-21T11:42:23;9.32;;;2.60;;
46439;SDS011;32138;50.966;6.968;2022-08-21T11:44:41;5.43;;;2.15;;
46439;SDS011;32138;50.966;6.968;2022-08-21T11:47:07;10.13;;;2.40;;
46439;SDS011;32138;50.966;6.968;2022-08-21T11:52:32;6.82;;;2.13;;
46439;SDS011;32138;50.966;6.968;2022-08-21T11:54:53;5.95;;;2.42;;
46439;SDS011;32138;50.966;6.968;2022-08-21T11:57:19;5.95;;;2.00;;
46439;SDS011;32138;50.966;6.968;2022-08-21T11:59:27;8.13;;;2.10;;
46439;SDS011;32138;50.966;6.968;2022-08-21T12:01:41;7.82;;;2.05;;
46439;SDS011;32138;50.966;6.968;2022-08-21T12:03:52;8.35;;;2.33;;
46439;SDS011;32138;50.966;6.968;2022-08-21T12:06:15;8.82;;;1.70;;
46439;SDS011;32138;50.966;6.968;2022-08-21T12:08:31;7.25;;;1.92;;
46439;SDS011;32138;50.966;6.968;2022-08-21T12:13:29;8.75;;;1.95;;
46439;SDS011;32138;50.966;6.968;2022-08-21T12:15:33;7.00;;;2.03;;
46439;SDS011;32138;50.966;6.968;2022-08-21T12:17:36;9.00;;;2.38;;
46439;SDS011;32138;50.966;6.968;2022-08-21T12:19:39;9.90;;;1.50;;
46439;SDS011;32138;50.966;6.968;2022-08-21T12:26:22;8.63;;;2.08;;
46439;SDS011;32138;50.966;6.968;2022-08-21T12:28:27;5.43;;;2.17;;
46439;SDS011;32138;50.966;6.968;2022-08-21T12:30:34;5.68;;;2.20;;
46439;SDS011;32138;50.966;6.968;2022-08-21T12:32:44;3.65;;;1.48;;
46439;SDS011;32138;50.966;6.968;2022-08-21T12:35:06;4.97;;;1.67;;
46439;SDS011;32138;50.966;6.968;2022-08-21T12:37:22;7.47;;;1.85;;
46439;SDS011;32138;50.966;6.968;2022-08-21T12:39:36;6.90;;;1.90;;
46439;SDS011;32138;50.966;6.968;2022-08-21T12:41:45;6.78;;;2.00;;
46439;SDS011;32138;50.966;6.968;2022-08-21T12:44:13;5.78;;;2.13;;
46439;SDS011;32138;50.966;6.968;2022-08-21T12:46:18;6.57;;;1.25;;
46439;SDS011;32138;50.966;6.968;2022-08-21T12:52:51;5.03;;;1.70;;
46439;SDS011;32138;50.966;6.968;2022-08-21T12:55:00;6.40;;;2.20;;
46439;SDS011;32138;50.966;6.968;2022-08-21T12:57:03;5.97;;;1.70;;
46439;SDS011;32138;50.966;6.968;2022-08-21T12:59:10;7.82;;;1.88;;
46439;SDS011;32138;50.966;6.968;2022-08-21T13:01:24;4.38;;;1.65;;
46439;SDS011;32138;50.966;6.968;2022-08-21T13:03:46;9.52;;;2.25;;
46439;SDS011;32138;50.966;6.968;2022-08-21T13:05:47;5.78;;;1.80;;
46439;SDS011;32138;50.966;6.968;2022-08-21T13:07:51;5.55;;;1.42;;
46439;SDS011;32138;50.966;6.968;2022-08-21T13:09:53;9.18;;;1.95;;
46439;SDS011;32138;50.966;6.968;2022-08-21T13:12:00;7.45;;;2.80;;
46439;SDS011;32138;50.966;6.968;2022-08-21T13:14:02;5.25;;;2.20;;
46439;SDS011;32138;50.966;6.968;2022-08-21T13:16:05;10.55;;;2.42;;
46439;SDS011;32138;50.966;6.968;2022-08-21T13:18:07;4.82;;;2.38;;
46439;SDS011;32138;50.966;6.968;2022-08-21T13:20:30;4.32;;;2.20;;
46439;SDS011;32138;50.966;6.968;2022-08-21T13:22:42;7.90;;;2.30;;
46439;SDS011;32138;50.966;6.968;2022-08-21T13:24:46;4.00;;;1.67;;
46439;SDS011;32138;50.966;6.968;2022-08-21T13:26:48;7.95;;;2.30;;
46439;SDS011;32138;50.966;6.968;2022-08-21T13:28:50;5.22;;;2.20;;
46439;SDS011;32138;50.966;6.968;2022-08-21T13:30:52;10.15;;;3.40;;